Time;durP1;ratioP1;P1;durP2;ratioP2;P2;SDS_P1;SDS_P2;PMS_P1;PMS_P2;Temp;Humidity;BMP_temperature;BMP_pressure;BME280_temperature;BME280_humidity;BME280_pressure;Samples;Min_cycle;Max_cycle;Signal;HPM_P1;HPM_P2
2022/06/30 19:25:52;;;;;;;;;;;28.80;53.30;;;;;;5076630;28;19928;-78
2022/06/30 19:28:18;;;;;;;;;;;28.80;52.90;;;;;;5056524;28;19928;-77
2022/06/30 19:30:44;;;;;;;;;;;28.70;53.10;;;;;;5057956;28;19917;-81
2022/06/30 19:33:10;;;;;;;;;;;28.60;53.40;;;;;;5054814;28;20381;-80
2022/06/30 19:35:36;;;;;;;;;;;28.60;53.00;;;;;;5037021;28;19921;-79
2022/06/30 19:38:02;;;;;;;;;;;28.50;53.70;;;;;;5041269;28;19912;-83
2022/06/30 19:40:30;;;;;;;;;;;28.40;53.80;;;;;;5047753;28;20351;-82
2022/06/30 19:42:55;;;;;;;;;;;28.30;54.10;;;;;;5067446;28;19912;-80
2022/06/30 19:45:21;;;;;;;;;;;28.30;54.10;;;;;;5054226;28;20275;-83
2022/06/30 19:47:46;;;;;;;;;;;28.30;54.10;;;;;;5058057;28;20317;-82
2022/06/30 19:50:12;;;;;;;;;;;28.20;54.00;;;;;;5065656;28;19909;-83
2022/06/30 19:52:38;;;;;;;;;;;28.20;54.00;;;;;;5065247;28;20002;-82
2022/06/30 19:55:04;;;;;;;;;;;28.20;54.40;;;;;;5065296;28;19921;-84
2022/06/30 19:57:29;;;;;;;;;;;28.10;54.20;;;;;;5062594;28;20006;-83
2022/06/30 19:59:55;;;;;;;;;;;28.10;54.40;;;;;;5045127;28;20342;-82
2022/06/30 20:02:21;;;;;;;;;;;28.10;54.70;;;;;;5063843;28;19909;-84
2022/06/30 20:04:59;;;;;;;;;;;28.00;54.60;;;;;;5044285;28;20382;-82
2022/06/30 20:12:53;;;;;;;;;;;28.00;54.80;;;;;;5055592;28;19974;-85
2022/06/30 20:15:19;;;;;;;;;;;27.90;54.50;;;;;;5061853;28;19920;-82
2022/06/30 20:17:45;;;;;;;;;;;27.90;54.70;;;;;;5064298;28;20051;-83
2022/06/30 20:20:13;;;;;;;;;;;27.80;54.70;;;;;;5064134;28;19940;-82
2022/06/30 20:22:39;;;;;;;;;;;27.80;54.80;;;;;;5045404;28;19913;-82
2022/06/30 20:25:05;;;;;;;;;;;27.80;55.00;;;;;;5063125;28;19913;-83
2022/06/30 20:27:32;;;;;;;;;;;27.80;55.00;;;;;;5064982;28;19968;-84
2022/06/30 20:29:59;;;;;;;;;;;27.70;55.20;;;;;;5063408;28;20271;-82
2022/06/30 20:32:24;;;;;;;;;;;27.70;55.00;;;;;;5062604;28;20321;-86
2022/06/30 20:34:50;;;;;;;;;;;27.70;55.20;;;;;;5064094;28;19908;-84
2022/06/30 20:37:16;;;;;;;;;;;27.70;55.40;;;;;;5062597;28;19932;-83
2022/06/30 20:39:41;;;;;;;;;;;27.70;55.70;;;;;;5042122;28;19912;-83
2022/06/30 20:42:07;;;;;;;;;;;27.60;55.80;;;;;;5045504;28;19915;-81
2022/06/30 20:44:35;;;;;;;;;;;27.60;55.50;;;;;;5063963;28;19912;-82
2022/06/30 20:47:01;;;;;;;;;;;27.60;56.00;;;;;;5065953;28;19909;-82
2022/06/30 20:52:10;;;;;;;;;;;27.50;55.70;;;;;;5064044;28;20353;-80
2022/06/30 20:54:36;;;;;;;;;;;27.50;56.10;;;;;;5043636;28;19912;-84
2022/06/30 20:57:03;;;;;;;;;;;27.50;56.40;;;;;;5063925;28;19923;-82
2022/06/30 20:59:32;;;;;;;;;;;27.50;56.40;;;;;;5044079;28;19920;-82
2022/06/30 21:01:58;;;;;;;;;;;27.40;56.00;;;;;;5055414;28;19909;-84
2022/06/30 21:04:24;;;;;;;;;;;27.40;56.10;;;;;;5054258;28;19909;-84
2022/06/30 21:06:50;;;;;;;;;;;27.40;56.30;;;;;;5054287;28;20251;-82
2022/06/30 21:09:15;;;;;;;;;;;27.30;56.40;;;;;;5036949;28;19916;-83
2022/06/30 21:11:41;;;;;;;;;;;27.30;56.30;;;;;;5060755;28;20389;-84
2022/06/30 21:14:07;;;;;;;;;;;27.30;56.80;;;;;;5040636;28;19979;-85
2022/06/30 21:16:32;;;;;;;;;;;27.20;56.50;;;;;;5058180;28;19917;-83
2022/06/30 21:18:58;;;;;;;;;;;27.20;56.70;;;;;;5040249;28;20489;-85
2022/06/30 21:21:23;;;;;;;;;;;27.20;56.80;;;;;;5060187;28;19913;-86
2022/06/30 21:23:49;;;;;;;;;;;27.20;57.00;;;;;;5060960;28;19917;-84
2022/06/30 21:26:14;;;;;;;;;;;27.10;57.30;;;;;;5057989;28;19992;-81
2022/06/30 21:28:40;;;;;;;;;;;27.10;57.00;;;;;;5058280;28;19909;-81
2022/06/30 21:31:06;;;;;;;;;;;27.10;57.20;;;;;;5057726;28;20003;-80
2022/06/30 21:33:32;;;;;;;;;;;27.10;57.10;;;;;;5057801;28;19917;-82
2022/06/30 21:35:57;;;;;;;;;;;27.10;57.20;;;;;;5057732;28;19916;-81
2022/06/30 21:38:23;;;;;;;;;;;27.10;56.50;;;;;;5057580;28;19954;-82
2022/06/30 21:40:48;;;;;;;;;;;27.00;57.00;;;;;;5039842;28;20332;-82
2022/06/30 21:43:14;;;;;;;;;;;26.90;57.90;;;;;;5040135;28;19948;-82
2022/06/30 21:45:40;;;;;;;;;;;26.90;57.40;;;;;;5057691;28;20367;-83
2022/06/30 21:48:08;;;;;;;;;;;26.90;57.50;;;;;;5057516;28;20015;-83
2022/06/30 21:50:37;;;;;;;;;;;26.90;57.40;;;;;;5057453;28;19913;-82
2022/06/30 21:53:06;;;;;;;;;;;26.90;57.40;;;;;;5057641;28;19912;-81
2022/06/30 21:55:33;;;;;;;;;;;26.90;57.50;;;;;;5059582;28;19921;-82
2022/06/30 21:57:58;;;;;;;;;;;26.90;57.50;;;;;;5039759;28;20011;-84
2022/06/30 22:00:24;;;;;;;;;;;26.90;57.40;;;;;;5057301;28;19959;-83
2022/06/30 22:02:49;;;;;;;;;;;26.90;57.50;;;;;;5057503;28;19916;-82
2022/06/30 22:05:16;;;;;;;;;;;26.90;57.50;;;;;;5041230;28;19913;-83
2022/06/30 22:07:41;;;;;;;;;;;26.90;58.20;;;;;;5058385;28;19916;-83
2022/06/30 22:10:07;;;;;;;;;;;26.90;57.60;;;;;;5057274;28;19909;-82
2022/06/30 22:12:33;;;;;;;;;;;26.80;57.60;;;;;;5057402;28;19909;-82
2022/06/30 22:14:58;;;;;;;;;;;26.90;57.50;;;;;;5037791;28;20256;-80
2022/06/30 22:17:24;;;;;;;;;;;26.90;57.80;;;;;;5055589;28;19948;-80
2022/06/30 22:19:49;;;;;;;;;;;26.90;57.70;;;;;;5055600;28;19970;-81
2022/06/30 22:22:15;;;;;;;;;;;26.90;57.60;;;;;;5036197;28;19915;-78
2022/06/30 22:24:41;;;;;;;;;;;26.90;57.80;;;;;;5055849;28;19916;-80
2022/06/30 22:27:06;;;;;;;;;;;26.90;57.70;;;;;;5038969;28;19924;-81
2022/06/30 22:29:32;;;;;;;;;;;26.90;58.10;;;;;;5056329;28;19916;-82
2022/06/30 22:31:57;;;;;;;;;;;26.90;57.90;;;;;;5038953;28;19916;-80
2022/06/30 22:34:23;;;;;;;;;;;26.90;57.90;;;;;;5057211;28;20022;-81
2022/06/30 22:36:48;;;;;;;;;;;26.80;57.80;;;;;;5056306;28;19920;-81
2022/06/30 22:39:14;;;;;;;;;;;26.90;58.00;;;;;;5056128;28;20314;-82
2022/06/30 22:41:40;;;;;;;;;;;26.80;57.90;;;;;;5056411;28;19916;-87
2022/06/30 22:44:06;;;;;;;;;;;26.80;57.80;;;;;;5056365;28;19908;-81
2022/06/30 22:46:31;;;;;;;;;;;26.80;57.90;;;;;;5056363;28;19921;-82
2022/06/30 22:48:57;;;;;;;;;;;26.80;58.00;;;;;;5056004;28;20363;-80
2022/06/30 22:51:22;;;;;;;;;;;26.70;57.90;;;;;;5056230;28;19916;-80
2022/06/30 22:53:48;;;;;;;;;;;26.70;58.10;;;;;;5056257;28;19920;-81
2022/06/30 22:56:14;;;;;;;;;;;26.70;58.20;;;;;;5056019;28;20413;-81
2022/06/30 22:58:40;;;;;;;;;;;26.70;58.20;;;;;;5056165;28;19920;-81
2022/06/30 23:01:05;;;;;;;;;;;26.70;58.20;;;;;;5055828;28;19995;-79
2022/06/30 23:03:31;;;;;;;;;;;26.70;58.10;;;;;;5056046;28;19919;-80
2022/06/30 23:05:56;;;;;;;;;;;26.60;58.40;;;;;;5057051;28;20367;-81
2022/06/30 23:08:22;;;;;;;;;;;26.60;58.30;;;;;;5037852;28;19963;-81
2022/06/30 23:10:47;;;;;;;;;;;26.60;58.50;;;;;;5055635;28;19908;-80
2022/06/30 23:13:13;;;;;;;;;;;26.60;58.40;;;;;;5055822;28;19908;-81
2022/06/30 23:15:38;;;;;;;;;;;26.50;58.40;;;;;;5055429;28;19928;-80
2022/06/30 23:18:04;;;;;;;;;;;26.50;58.60;;;;;;5055341;28;19912;-81
2022/06/30 23:20:29;;;;;;;;;;;26.50;58.70;;;;;;5055723;28;20294;-81
2022/06/30 23:22:55;;;;;;;;;;;26.50;58.80;;;;;;5055601;28;20354;-80
2022/06/30 23:25:20;;;;;;;;;;;26.50;58.80;;;;;;5055421;28;19916;-82
2022/06/30 23:27:46;;;;;;;;;;;26.50;58.80;;;;;;5055094;28;20375;-81
2022/06/30 23:30:12;;;;;;;;;;;26.50;59.00;;;;;;5055623;28;19909;-81
2022/06/30 23:32:37;;;;;;;;;;;26.50;58.80;;;;;;5055200;28;19909;-81
2022/06/30 23:35:03;;;;;;;;;;;26.50;58.80;;;;;;5037447;28;19959;-81
2022/06/30 23:37:28;;;;;;;;;;;26.50;58.80;;;;;;5055422;28;19920;-81
2022/06/30 23:39:56;;;;;;;;;;;26.50;58.80;;;;;;5054843;28;20336;-81
2022/06/30 23:42:22;;;;;;;;;;;26.50;59.30;;;;;;5037567;28;19931;-81
2022/06/30 23:44:47;;;;;;;;;;;26.50;59.10;;;;;;5037299;28;19913;-81
2022/06/30 23:47:13;;;;;;;;;;;26.50;58.90;;;;;;5054717;28;19913;-81
2022/06/30 23:49:46;;;;;;;;;;;26.50;59.10;;;;;;5054943;28;19913;-81
2022/06/30 23:52:12;;;;;;;;;;;26.50;59.40;;;;;;5054739;28;20355;-81
2022/06/30 23:54:39;;;;;;;;;;;26.50;59.00;;;;;;5037419;28;19970;-81
2022/06/30 23:57:05;;;;;;;;;;;26.50;59.20;;;;;;5054850;28;19912;-80
2022/06/30 23:59:31;;;;;;;;;;;26.40;59.10;;;;;;5054749;28;19916;-80
